sensor_id;sensor_type;location;lat;lon;timestamp;temperature;humidity
17659;DHT22;8948;51.534;8.262;2023-08-31T00:00:17;14.00;75.20
17659;DHT22;8948;51.534;8.262;2023-08-31T00:05:18;14.10;74.30
17659;DHT22;8948;51.534;8.262;2023-08-31T00:10:19;14.10;74.30
17659;DHT22;8948;51.534;8.262;2023-08-31T00:15:20;14.10;73.70
17659;DHT22;8948;51.534;8.262;2023-08-31T00:20:20;14.10;74.50
17659;DHT22;8948;51.534;8.262;2023-08-31T00:25:22;14.00;75.10
17659;DHT22;8948;51.534;8.262;2023-08-31T00:30:23;14.10;75.20
17659;DHT22;8948;51.534;8.262;2023-08-31T00:35:28;14.20;74.90
17659;DHT22;8948;51.534;8.262;2023-08-31T00:40:29;14.30;75.20
17659;DHT22;8948;51.534;8.262;2023-08-31T00:45:31;14.20;74.40
17659;DHT22;8948;51.534;8.262;2023-08-31T00:50:32;14.20;74.90
17659;DHT22;8948;51.534;8.262;2023-08-31T00:55:33;14.20;75.10
17659;DHT22;8948;51.534;8.262;2023-08-31T01:00:46;14.20;74.30
17659;DHT22;8948;51.534;8.262;2023-08-31T01:05:56;14.20;74.80
17659;DHT22;8948;51.534;8.262;2023-08-31T01:11:12;14.20;74.70
17659;DHT22;8948;51.534;8.262;2023-08-31T01:16:18;14.20;74.60
17659;DHT22;8948;51.534;8.262;2023-08-31T01:21:22;14.20;74.70
17659;DHT22;8948;51.534;8.262;2023-08-31T01:26:25;14.10;75.00
17659;DHT22;8948;51.534;8.262;2023-08-31T01:31:25;14.20;75.00
17659;DHT22;8948;51.534;8.262;2023-08-31T01:36:29;14.30;74.50
17659;DHT22;8948;51.534;8.262;2023-08-31T01:41:31;14.30;73.90
17659;DHT22;8948;51.534;8.262;2023-08-31T01:46:34;14.30;74.30
17659;DHT22;8948;51.534;8.262;2023-08-31T01:51:35;14.30;74.50
17659;DHT22;8948;51.534;8.262;2023-08-31T01:56:35;14.10;75.20
17659;DHT22;8948;51.534;8.262;2023-08-31T02:01:36;14.20;75.40
17659;DHT22;8948;51.534;8.262;2023-08-31T02:06:36;14.20;74.90
17659;DHT22;8948;51.534;8.262;2023-08-31T02:11:37;14.20;74.90
17659;DHT22;8948;51.534;8.262;2023-08-31T02:16:38;14.20;74.80
17659;DHT22;8948;51.534;8.262;2023-08-31T02:21:38;14.30;75.20
17659;DHT22;8948;51.534;8.262;2023-08-31T02:26:39;14.30;74.50
17659;DHT22;8948;51.534;8.262;2023-08-31T02:31:39;14.30;73.60
17659;DHT22;8948;51.534;8.262;2023-08-31T02:36:42;14.20;74.10
17659;DHT22;8948;51.534;8.262;2023-08-31T02:41:42;14.10;73.90
17659;DHT22;8948;51.534;8.262;2023-08-31T02:46:43;14.00;73.00
17659;DHT22;8948;51.534;8.262;2023-08-31T02:51:43;13.80;73.20
17659;DHT22;8948;51.534;8.262;2023-08-31T02:56:44;13.60;73.30
17659;DHT22;8948;51.534;8.262;2023-08-31T03:01:44;13.50;73.70
17659;DHT22;8948;51.534;8.262;2023-08-31T03:06:47;13.60;73.10
17659;DHT22;8948;51.534;8.262;2023-08-31T03:11:47;13.50;72.90
17659;DHT22;8948;51.534;8.262;2023-08-31T03:16:48;13.40;74.10
17659;DHT22;8948;51.534;8.262;2023-08-31T03:21:50;13.30;74.00
17659;DHT22;8948;51.534;8.262;2023-08-31T03:26:50;13.40;74.00
17659;DHT22;8948;51.534;8.262;2023-08-31T03:31:51;13.30;73.10
17659;DHT22;8948;51.534;8.262;2023-08-31T03:36:51;13.20;74.50
17659;DHT22;8948;51.534;8.262;2023-08-31T03:41:52;13.20;74.30
17659;DHT22;8948;51.534;8.262;2023-08-31T03:46:52;13.20;74.70
17659;DHT22;8948;51.534;8.262;2023-08-31T03:51:53;13.20;74.60
17659;DHT22;8948;51.534;8.262;2023-08-31T03:56:54;13.20;74.70
17659;DHT22;8948;51.534;8.262;2023-08-31T04:01:54;13.10;74.60
17659;DHT22;8948;51.534;8.262;2023-08-31T04:06:55;13.10;74.00
17659;DHT22;8948;51.534;8.262;2023-08-31T04:11:55;13.00;75.10
17659;DHT22;8948;51.534;8.262;2023-08-31T04:16:56;12.90;75.00
17659;DHT22;8948;51.534;8.262;2023-08-31T04:21:56;13.00;75.40
17659;DHT22;8948;51.534;8.262;2023-08-31T04:26:57;12.90;75.40
17659;DHT22;8948;51.534;8.262;2023-08-31T04:31:57;13.00;75.50
17659;DHT22;8948;51.534;8.262;2023-08-31T04:36:59;12.90;75.50
17659;DHT22;8948;51.534;8.262;2023-08-31T04:41:59;12.80;75.70
17659;DHT22;8948;51.534;8.262;2023-08-31T04:47:00;12.80;75.70
17659;DHT22;8948;51.534;8.262;2023-08-31T04:52:01;12.80;75.30
17659;DHT22;8948;51.534;8.262;2023-08-31T04:57:01;12.80;75.40
17659;DHT22;8948;51.534;8.262;2023-08-31T05:02:03;12.80;75.60
17659;DHT22;8948;51.534;8.262;2023-08-31T05:07:04;12.80;75.10
17659;DHT22;8948;51.534;8.262;2023-08-31T05:12:05;12.80;75.80
17659;DHT22;8948;51.534;8.262;2023-08-31T05:17:06;12.80;75.80
17659;DHT22;8948;51.534;8.262;2023-08-31T05:22:07;12.90;75.70
17659;DHT22;8948;51.534;8.262;2023-08-31T05:27:07;13.00;75.70
17659;DHT22;8948;51.534;8.262;2023-08-31T05:32:08;13.10;75.30
17659;DHT22;8948;51.534;8.262;2023-08-31T05:37:08;13.10;75.60
17659;DHT22;8948;51.534;8.262;2023-08-31T05:42:09;13.10;74.40
17659;DHT22;8948;51.534;8.262;2023-08-31T05:47:10;13.10;75.30
17659;DHT22;8948;51.534;8.262;2023-08-31T05:52:10;13.30;75.40
17659;DHT22;8948;51.534;8.262;2023-08-31T05:57:11;13.60;74.80
17659;DHT22;8948;51.534;8.262;2023-08-31T06:02:11;13.60;74.20
17659;DHT22;8948;51.534;8.262;2023-08-31T06:07:12;13.60;73.50
17659;DHT22;8948;51.534;8.262;2023-08-31T06:12:12;13.50;73.80
17659;DHT22;8948;51.534;8.262;2023-08-31T06:17:13;13.50;74.60
17659;DHT22;8948;51.534;8.262;2023-08-31T06:22:13;13.60;74.50
17659;DHT22;8948;51.534;8.262;2023-08-31T06:27:14;13.60;74.50
17659;DHT22;8948;51.534;8.262;2023-08-31T06:32:17;13.60;74.00
17659;DHT22;8948;51.534;8.262;2023-08-31T06:37:18;13.90;73.80
17659;DHT22;8948;51.534;8.262;2023-08-31T06:42:20;14.10;73.60
17659;DHT22;8948;51.534;8.262;2023-08-31T06:47:21;14.30;72.30
17659;DHT22;8948;51.534;8.262;2023-08-31T06:52:22;14.30;73.70
17659;DHT22;8948;51.534;8.262;2023-08-31T06:57:23;14.40;73.30
17659;DHT22;8948;51.534;8.262;2023-08-31T07:02:26;14.50;73.50
17659;DHT22;8948;51.534;8.262;2023-08-31T07:07:27;14.80;72.90
17659;DHT22;8948;51.534;8.262;2023-08-31T07:12:27;14.90;72.60
17659;DHT22;8948;51.534;8.262;2023-08-31T07:17:28;15.10;72.00
17659;DHT22;8948;51.534;8.262;2023-08-31T07:22:28;15.20;71.50
17659;DHT22;8948;51.534;8.262;2023-08-31T07:27:29;15.40;72.70
17659;DHT22;8948;51.534;8.262;2023-08-31T07:32:29;15.40;71.20
17659;DHT22;8948;51.534;8.262;2023-08-31T07:37:30;15.60;71.00
17659;DHT22;8948;51.534;8.262;2023-08-31T07:42:31;15.90;71.30
17659;DHT22;8948;51.534;8.262;2023-08-31T07:47:31;15.90;70.50
17659;DHT22;8948;51.534;8.262;2023-08-31T07:52:32;16.10;70.70
17659;DHT22;8948;51.534;8.262;2023-08-31T07:57:32;16.00;69.90
17659;DHT22;8948;51.534;8.262;2023-08-31T08:02:34;15.90;70.10
17659;DHT22;8948;51.534;8.262;2023-08-31T08:07:35;15.90;69.40
17659;DHT22;8948;51.534;8.262;2023-08-31T08:12:42;16.40;68.70
17659;DHT22;8948;51.534;8.262;2023-08-31T08:17:46;16.50;69.00
17659;DHT22;8948;51.534;8.262;2023-08-31T08:22:48;16.30;69.40
17659;DHT22;8948;51.534;8.262;2023-08-31T08:27:52;16.20;66.70
17659;DHT22;8948;51.534;8.262;2023-08-31T08:32:53;16.80;67.30
17659;DHT22;8948;51.534;8.262;2023-08-31T08:37:53;17.30;64.60
17659;DHT22;8948;51.534;8.262;2023-08-31T08:42:55;17.50;63.70
17659;DHT22;8948;51.534;8.262;2023-08-31T08:47:57;17.80;62.70
17659;DHT22;8948;51.534;8.262;2023-08-31T08:52:58;17.90;64.70
17659;DHT22;8948;51.534;8.262;2023-08-31T08:57:59;17.90;64.40
17659;DHT22;8948;51.534;8.262;2023-08-31T09:03:03;18.50;60.80
17659;DHT22;8948;51.534;8.262;2023-08-31T09:08:09;18.00;61.50
17659;DHT22;8948;51.534;8.262;2023-08-31T09:13:14;17.20;63.60
17659;DHT22;8948;51.534;8.262;2023-08-31T09:23:25;16.50;63.70
17659;DHT22;8948;51.534;8.262;2023-08-31T09:28:27;16.90;63.30
17659;DHT22;8948;51.534;8.262;2023-08-31T09:33:28;17.10;62.50
17659;DHT22;8948;51.534;8.262;2023-08-31T09:38:29;17.00;59.40
17659;DHT22;8948;51.534;8.262;2023-08-31T09:43:29;16.80;61.90
17659;DHT22;8948;51.534;8.262;2023-08-31T09:48:31;17.30;59.50
17659;DHT22;8948;51.534;8.262;2023-08-31T09:53:32;17.40;58.50
17659;DHT22;8948;51.534;8.262;2023-08-31T09:58:36;17.20;58.50
17659;DHT22;8948;51.534;8.262;2023-08-31T10:03:37;17.80;59.60
17659;DHT22;8948;51.534;8.262;2023-08-31T10:08:39;17.80;55.20
17659;DHT22;8948;51.534;8.262;2023-08-31T10:13:41;17.90;57.50
17659;DHT22;8948;51.534;8.262;2023-08-31T10:18:41;18.30;55.90
17659;DHT22;8948;51.534;8.262;2023-08-31T10:23:46;17.80;55.80
17659;DHT22;8948;51.534;8.262;2023-08-31T10:28:46;17.40;54.50
17659;DHT22;8948;51.534;8.262;2023-08-31T10:43:58;17.50;57.70
17659;DHT22;8948;51.534;8.262;2023-08-31T10:54:11;18.50;54.70
17659;DHT22;8948;51.534;8.262;2023-08-31T10:59:13;18.30;54.10
17659;DHT22;8948;51.534;8.262;2023-08-31T11:04:14;17.60;57.70
17659;DHT22;8948;51.534;8.262;2023-08-31T11:09:19;17.20;61.30
17659;DHT22;8948;51.534;8.262;2023-08-31T11:14:20;17.10;60.50
17659;DHT22;8948;51.534;8.262;2023-08-31T11:19:21;17.00;63.60
17659;DHT22;8948;51.534;8.262;2023-08-31T11:24:22;16.60;67.00
17659;DHT22;8948;51.534;8.262;2023-08-31T11:29:22;16.10;68.30
17659;DHT22;8948;51.534;8.262;2023-08-31T11:34:23;15.90;70.00
17659;DHT22;8948;51.534;8.262;2023-08-31T11:39:24;16.10;70.30
17659;DHT22;8948;51.534;8.262;2023-08-31T11:44:25;16.10;69.50
17659;DHT22;8948;51.534;8.262;2023-08-31T11:49:27;16.10;69.40
17659;DHT22;8948;51.534;8.262;2023-08-31T11:54:28;16.20;69.50
17659;DHT22;8948;51.534;8.262;2023-08-31T11:59:35;16.20;70.10
17659;DHT22;8948;51.534;8.262;2023-08-31T12:04:43;16.10;70.40
17659;DHT22;8948;51.534;8.262;2023-08-31T12:09:47;16.00;70.00
17659;DHT22;8948;51.534;8.262;2023-08-31T12:14:52;16.00;70.50
17659;DHT22;8948;51.534;8.262;2023-08-31T12:19:52;16.20;70.60
17659;DHT22;8948;51.534;8.262;2023-08-31T12:24:53;16.60;70.10
17659;DHT22;8948;51.534;8.262;2023-08-31T12:29:53;17.50;66.10
17659;DHT22;8948;51.534;8.262;2023-08-31T12:34:55;17.80;66.80
17659;DHT22;8948;51.534;8.262;2023-08-31T12:39:56;18.40;65.90
17659;DHT22;8948;51.534;8.262;2023-08-31T12:44:56;19.50;62.90
17659;DHT22;8948;51.534;8.262;2023-08-31T12:49:57;20.00;58.50
17659;DHT22;8948;51.534;8.262;2023-08-31T12:54:58;20.60;58.20
17659;DHT22;8948;51.534;8.262;2023-08-31T12:59:58;21.00;57.60
17659;DHT22;8948;51.534;8.262;2023-08-31T13:04:59;21.30;58.80
17659;DHT22;8948;51.534;8.262;2023-08-31T13:10:03;22.00;56.00
17659;DHT22;8948;51.534;8.262;2023-08-31T13:15:05;22.40;53.90
17659;DHT22;8948;51.534;8.262;2023-08-31T13:20:08;22.80;53.70
17659;DHT22;8948;51.534;8.262;2023-08-31T13:25:09;22.50;52.40
17659;DHT22;8948;51.534;8.262;2023-08-31T13:30:11;22.30;47.80
17659;DHT22;8948;51.534;8.262;2023-08-31T13:35:12;22.20;49.50
17659;DHT22;8948;51.534;8.262;2023-08-31T13:40:13;22.20;46.80
17659;DHT22;8948;51.534;8.262;2023-08-31T13:45:14;22.10;47.50
17659;DHT22;8948;51.534;8.262;2023-08-31T13:50:15;22.10;47.70
17659;DHT22;8948;51.534;8.262;2023-08-31T13:55:16;21.30;48.70
17659;DHT22;8948;51.534;8.262;2023-08-31T14:00:17;20.40;49.40
17659;DHT22;8948;51.534;8.262;2023-08-31T14:05:17;19.60;56.70
17659;DHT22;8948;51.534;8.262;2023-08-31T14:10:18;20.20;59.90
17659;DHT22;8948;51.534;8.262;2023-08-31T14:15:18;21.30;58.20
17659;DHT22;8948;51.534;8.262;2023-08-31T14:20:19;21.80;54.20
17659;DHT22;8948;51.534;8.262;2023-08-31T14:25:20;22.00;51.30
17659;DHT22;8948;51.534;8.262;2023-08-31T14:30:24;22.00;46.40
17659;DHT22;8948;51.534;8.262;2023-08-31T14:35:24;21.90;48.10
17659;DHT22;8948;51.534;8.262;2023-08-31T14:40:25;22.10;51.60
17659;DHT22;8948;51.534;8.262;2023-08-31T14:45:25;22.10;47.50
17659;DHT22;8948;51.534;8.262;2023-08-31T14:50:26;22.00;47.50
17659;DHT22;8948;51.534;8.262;2023-08-31T14:55:26;22.10;50.10
17659;DHT22;8948;51.534;8.262;2023-08-31T15:00:27;22.00;48.40
17659;DHT22;8948;51.534;8.262;2023-08-31T15:05:27;22.10;45.20
17659;DHT22;8948;51.534;8.262;2023-08-31T15:10:30;21.90;46.50
17659;DHT22;8948;51.534;8.262;2023-08-31T15:15:31;21.00;48.50
17659;DHT22;8948;51.534;8.262;2023-08-31T15:20:32;20.50;49.80
17659;DHT22;8948;51.534;8.262;2023-08-31T15:25:32;20.20;50.20
17659;DHT22;8948;51.534;8.262;2023-08-31T15:30:33;19.80;50.80
17659;DHT22;8948;51.534;8.262;2023-08-31T15:35:33;19.60;55.20
17659;DHT22;8948;51.534;8.262;2023-08-31T15:40:34;19.30;57.60
17659;DHT22;8948;51.534;8.262;2023-08-31T15:45:34;19.30;55.60
17659;DHT22;8948;51.534;8.262;2023-08-31T15:50:35;19.10;56.00
17659;DHT22;8948;51.534;8.262;2023-08-31T15:55:35;18.90;58.40
17659;DHT22;8948;51.534;8.262;2023-08-31T16:00:36;18.80;59.50
17659;DHT22;8948;51.534;8.262;2023-08-31T16:05:37;18.70;60.90
17659;DHT22;8948;51.534;8.262;2023-08-31T16:10:38;18.70;61.70
17659;DHT22;8948;51.534;8.262;2023-08-31T16:15:45;18.40;62.20
17659;DHT22;8948;51.534;8.262;2023-08-31T16:20:46;18.00;62.80
17659;DHT22;8948;51.534;8.262;2023-08-31T16:25:47;17.80;66.20
17659;DHT22;8948;51.534;8.262;2023-08-31T16:30:47;17.70;67.20
17659;DHT22;8948;51.534;8.262;2023-08-31T16:35:48;18.00;67.30
17659;DHT22;8948;51.534;8.262;2023-08-31T16:40:49;18.10;65.70
17659;DHT22;8948;51.534;8.262;2023-08-31T16:45:50;17.80;68.10
17659;DHT22;8948;51.534;8.262;2023-08-31T16:50:51;17.90;68.20
17659;DHT22;8948;51.534;8.262;2023-08-31T16:55:51;18.10;66.00
17659;DHT22;8948;51.534;8.262;2023-08-31T17:00:52;18.00;66.90
17659;DHT22;8948;51.534;8.262;2023-08-31T17:05:53;17.80;66.30
17659;DHT22;8948;51.534;8.262;2023-08-31T17:10:54;17.70;67.50
17659;DHT22;8948;51.534;8.262;2023-08-31T17:15:54;17.60;66.80
17659;DHT22;8948;51.534;8.262;2023-08-31T17:20:55;17.60;66.70
17659;DHT22;8948;51.534;8.262;2023-08-31T17:25:56;17.60;65.40
17659;DHT22;8948;51.534;8.262;2023-08-31T17:30:56;17.50;65.90
17659;DHT22;8948;51.534;8.262;2023-08-31T17:35:57;17.30;66.00
17659;DHT22;8948;51.534;8.262;2023-08-31T17:40:58;17.20;67.30
17659;DHT22;8948;51.534;8.262;2023-08-31T17:45:59;17.10;67.80
17659;DHT22;8948;51.534;8.262;2023-08-31T17:50:59;17.20;67.60
17659;DHT22;8948;51.534;8.262;2023-08-31T17:56:00;17.00;68.00
17659;DHT22;8948;51.534;8.262;2023-08-31T18:01:01;17.20;67.20
17659;DHT22;8948;51.534;8.262;2023-08-31T18:06:01;17.20;66.40
17659;DHT22;8948;51.534;8.262;2023-08-31T18:11:03;17.20;66.20
17659;DHT22;8948;51.534;8.262;2023-08-31T18:16:04;17.20;66.40
17659;DHT22;8948;51.534;8.262;2023-08-31T18:21:06;17.10;67.10
17659;DHT22;8948;51.534;8.262;2023-08-31T18:26:06;17.10;67.60
17659;DHT22;8948;51.534;8.262;2023-08-31T18:31:07;17.10;67.30
17659;DHT22;8948;51.534;8.262;2023-08-31T18:36:09;17.00;66.70
17659;DHT22;8948;51.534;8.262;2023-08-31T18:41:10;17.00;67.00
17659;DHT22;8948;51.534;8.262;2023-08-31T18:46:11;16.80;66.50
17659;DHT22;8948;51.534;8.262;2023-08-31T18:51:11;16.80;66.90
17659;DHT22;8948;51.534;8.262;2023-08-31T18:56:12;16.70;67.10
17659;DHT22;8948;51.534;8.262;2023-08-31T19:01:12;16.90;67.30
17659;DHT22;8948;51.534;8.262;2023-08-31T19:06:13;16.60;68.30
17659;DHT22;8948;51.534;8.262;2023-08-31T19:11:14;16.50;69.00
17659;DHT22;8948;51.534;8.262;2023-08-31T19:16:15;16.40;69.40
17659;DHT22;8948;51.534;8.262;2023-08-31T19:21:17;16.30;69.90
17659;DHT22;8948;51.534;8.262;2023-08-31T19:26:18;16.40;70.20
17659;DHT22;8948;51.534;8.262;2023-08-31T19:31:18;16.50;69.90
17659;DHT22;8948;51.534;8.262;2023-08-31T19:36:21;16.30;70.60
17659;DHT22;8948;51.534;8.262;2023-08-31T19:41:21;16.10;71.30
17659;DHT22;8948;51.534;8.262;2023-08-31T19:46:24;16.10;68.70
17659;DHT22;8948;51.534;8.262;2023-08-31T19:51:25;16.20;70.90
17659;DHT22;8948;51.534;8.262;2023-08-31T19:56:25;16.30;71.10
17659;DHT22;8948;51.534;8.262;2023-08-31T20:01:26;16.50;70.30
17659;DHT22;8948;51.534;8.262;2023-08-31T20:06:26;16.50;69.90
17659;DHT22;8948;51.534;8.262;2023-08-31T20:11:27;16.30;70.60
17659;DHT22;8948;51.534;8.262;2023-08-31T20:16:27;16.40;70.00
17659;DHT22;8948;51.534;8.262;2023-08-31T20:21:28;16.20;70.60
17659;DHT22;8948;51.534;8.262;2023-08-31T20:26:29;16.20;70.40
17659;DHT22;8948;51.534;8.262;2023-08-31T20:31:30;16.00;70.90
17659;DHT22;8948;51.534;8.262;2023-08-31T20:36:30;15.90;70.90
17659;DHT22;8948;51.534;8.262;2023-08-31T20:41:32;15.90;70.60
17659;DHT22;8948;51.534;8.262;2023-08-31T20:46:37;15.70;71.10
17659;DHT22;8948;51.534;8.262;2023-08-31T20:51:38;15.60;71.00
17659;DHT22;8948;51.534;8.262;2023-08-31T20:56:41;15.60;70.20
17659;DHT22;8948;51.534;8.262;2023-08-31T21:01:41;15.60;70.10
17659;DHT22;8948;51.534;8.262;2023-08-31T21:06:42;15.60;70.10
17659;DHT22;8948;51.534;8.262;2023-08-31T21:11:45;15.50;70.20
17659;DHT22;8948;51.534;8.262;2023-08-31T21:16:46;15.60;70.60
17659;DHT22;8948;51.534;8.262;2023-08-31T21:21:46;15.70;70.00
17659;DHT22;8948;51.534;8.262;2023-08-31T21:26:47;15.70;70.20
17659;DHT22;8948;51.534;8.262;2023-08-31T21:31:47;15.60;70.50
17659;DHT22;8948;51.534;8.262;2023-08-31T21:36:48;15.50;70.40
17659;DHT22;8948;51.534;8.262;2023-08-31T21:41:48;15.40;70.80
17659;DHT22;8948;51.534;8.262;2023-08-31T21:46:49;15.40;70.40
17659;DHT22;8948;51.534;8.262;2023-08-31T21:51:50;15.40;70.20
17659;DHT22;8948;51.534;8.262;2023-08-31T21:56:50;15.30;70.80
17659;DHT22;8948;51.534;8.262;2023-08-31T22:01:51;15.20;70.90
17659;DHT22;8948;51.534;8.262;2023-08-31T22:06:51;15.10;70.90
17659;DHT22;8948;51.534;8.262;2023-08-31T22:11:52;15.00;71.30
17659;DHT22;8948;51.534;8.262;2023-08-31T22:16:53;15.00;71.30
17659;DHT22;8948;51.534;8.262;2023-08-31T22:21:55;15.10;71.00
17659;DHT22;8948;51.534;8.262;2023-08-31T22:26:56;15.10;70.90
17659;DHT22;8948;51.534;8.262;2023-08-31T22:31:57;15.00;71.10
17659;DHT22;8948;51.534;8.262;2023-08-31T22:36:58;15.10;71.10
17659;DHT22;8948;51.534;8.262;2023-08-31T22:41:58;15.00;71.10
17659;DHT22;8948;51.534;8.262;2023-08-31T22:46:59;15.00;71.40
17659;DHT22;8948;51.534;8.262;2023-08-31T22:52:00;14.90;71.50
17659;DHT22;8948;51.534;8.262;2023-08-31T22:57:00;15.00;71.10
17659;DHT22;8948;51.534;8.262;2023-08-31T23:02:01;14.90;71.20
17659;DHT22;8948;51.534;8.262;2023-08-31T23:07:04;14.80;71.40
17659;DHT22;8948;51.534;8.262;2023-08-31T23:12:05;14.80;72.00
17659;DHT22;8948;51.534;8.262;2023-08-31T23:17:05;14.80;71.60
17659;DHT22;8948;51.534;8.262;2023-08-31T23:22:06;14.90;71.30
17659;DHT22;8948;51.534;8.262;2023-08-31T23:27:06;14.80;71.80
17659;DHT22;8948;51.534;8.262;2023-08-31T23:32:07;14.80;72.10
17659;DHT22;8948;51.534;8.262;2023-08-31T23:37:08;14.70;72.80
17659;DHT22;8948;51.534;8.262;2023-08-31T23:42:10;14.70;72.90
17659;DHT22;8948;51.534;8.262;2023-08-31T23:47:10;14.60;72.90
17659;DHT22;8948;51.534;8.262;2023-08-31T23:52:11;14.50;73.40
17659;DHT22;8948;51.534;8.262;2023-08-31T23:57:11;14.60;73.10
